Air Resources Laboratory banner image
Air Resources Laboratory web site National Oceanic and Atmospheric Administration (NOAA)

pa metar


KABE 250651Z 07009KT 7SM OVC006 07/04 A3012 RMK AO2 SLP203 T00670044=
KAFJ 250656Z AUTO 14004KT 6SM -RA BR FEW037 BKN060 OVC090 11/11 A2985 RMK AO2
 SLP109 P0010 T01110106=
KAGC 250653Z 15009KT 5SM -RA BR FEW017 BKN050 OVC075 09/08 A2984 RMK AO2 SLP112
 P0016 T00940083=
KAOO 250653Z AUTO 14003KT 3SM RA BR BKN008 OVC014 06/05 A3001 RMK AO2 SLP170
 P0007 T00610050=
KAVP 250654Z 06005KT 6SM -RA BR OVC013 06/04 A3007 RMK AO2 RAB04 PRESFR SLP187
 P0001 T00560044=
KBFD 250653Z AUTO 15010G20KT 10SM -RA OVC007 05/04 A2989 RMK AO2 SLP132 P0001
 T00500044=
KBTP 250656Z AUTO 13006KT 10SM -RA BKN007 BKN014 OVC028 08/08 A2985 RMK AO2
 RAB06 CIG 005V010 SLP119 P0014 T00830078=
KCXY 250656Z AUTO 08005KT 4SM -RA BR OVC012 07/07 A3007 RMK AO2 SLP186 P0013
 T00720067=
KDUJ 250653Z AUTO 14018G24KT 10SM OVC004 06/04 A2988 RMK AO2 SLP126 T00560044=
KDYL 250654Z AUTO 00000KT 8SM -RA OVC004 07/06 A3012 RMK AO2 RAE06B51 SLP204
 P0000 T00670061=
KERI 250651Z AUTO 15009KT 6SM -RA BR FEW040 OVC055 09/07 A2980 RMK AO2 SLP095
 P0005 T00890067=
KFIG 250654Z AUTO 12005KT 7SM -RA BKN008 OVC012 06/06 A2997 RMK AO2 RAE14B36
 CIG 006V010 SLP157 P0002 T00610056=
KFKL 250656Z AUTO 13016G20KT 8SM RA OVC004 07/06 A2984 RMK AO2 CIG 003V007
 SLP113 P0025 T00670061=
KGKJ 250653Z AUTO VRB05KT 4SM +RA BR BKN006 BKN014 OVC027 07/07 A2982 RMK AO2
 SLP105 P0017 T00670067=
KIDI 250655Z AUTO 15010G16KT 2SM BR FEW004 SCT012 OVC028 08/07 A2994 RMK A01=
KIPT 250654Z AUTO 07007KT 8SM -RA OVC009 06/06 A3007 RMK AO2 SLP185 P0002
 T00610056=
KJST 250654Z AUTO 19006G16KT 4SM RA BR OVC006 05/04 A2996 RMK AO2 RAB0555 CIG
 004V009 SLP156 P0017 T00500039=
KLBE 250655Z AUTO 17010G19KT 4SM -RA BKN023 BKN032 OVC042 09/08 A2990 RMK AO2
 P0011=
KLNS 250653Z AUTO 09007KT 4SM RA BR SCT012 OVC034 07/06 A3009 RMK AO2 RAB0559
 SLP192 P0007 T00720061=
KMDT 250656Z 09006KT 3SM -RA BR BKN015 OVC036 07/06 A3007 RMK AO2 RAB33 SLP185
 P0012 T00720061=
KMPO 250653Z AUTO 10008KT 10SM -RA OVC003 01/01 A3008 RMK AO2 RAB38 SLP203
 P0000 T00110011=
KMUI 250656Z AUTO 07005KT 3SM RA BR BKN007 OVC017 06/06 A3011 RMK AO2
 DZE0559RAB0559E20DZB20E28DZB31E34RAB34 BKN V OVC SLP201 P0008 T00620062 $=
KPHL 250654Z 08007KT 8SM -RA BKN009 OVC030 08/07 A3013 RMK AO2 RAB14 SLP203
 P0001 T00780067 $=
KPIT 250651Z 14010KT 5SM -RA BR SCT012 BKN046 OVC080 10/09 A2982 RMK AO2 CIG
 034 SE SLP107 P0015 T01000089 $=
KPNE 250654Z AUTO 08008KT 4SM -RA BR BKN009 OVC022 08/07 A3014 RMK AO2 RAB40
 SLP207 P0002 T00830067=
KPTW 250654Z AUTO 10005KT 4SM -RA BR OVC006 06/06 A3013 RMK AO2 RAB16 SLP202
 P0000 T00610061=
KRDG 250654Z VRB03KT 10SM -RA OVC013 08/07 A3009 RMK AO2 RAB38 SLP197 P0001
 T00780067=
KSEG 250653Z AUTO 00000KT 1 3/4SM -RA BR OVC018 06/06 A3009 RMK AO2 RAE0559B21
 SLP191 P0002 T00560056=
KTHV 250653Z AUTO 08004KT 4SM -RA BR BKN010 OVC015 07/07 A3007 RMK AO2 CIG
 008V013 SLP187 P0012 T00720072=
KUNV 250655Z AUTO 14006G14KT 10SM -RA OVC014 07/05 A3002 RMK AO2 T00680050=